createdAt,value
2018-06-19T00:03:16.524Z,7.50
2018-06-19T00:08:46.453Z,7.10
2018-06-19T00:14:16.746Z,7.10
2018-06-19T00:19:51.025Z,6.80
2018-06-19T00:25:20.495Z,7.65
2018-06-19T00:30:50.058Z,7.45
2018-06-19T00:36:19.609Z,7.37
2018-06-19T00:41:48.969Z,7.55
2018-06-19T00:47:18.432Z,7.75
2018-06-19T00:52:47.965Z,7.35
2018-06-19T00:58:17.417Z,7.47
2018-06-19T01:03:46.923Z,7.30
2018-06-19T01:09:16.517Z,9.10
2018-06-19T01:14:46.092Z,8.50
2018-06-19T01:20:15.655Z,8.88
2018-06-19T01:25:45.222Z,8.20
2018-06-19T01:31:14.409Z,8.38
2018-06-19T01:36:43.599Z,7.95
2018-06-19T01:42:12.771Z,8.38
2018-06-19T01:47:41.972Z,8.03
2018-06-19T01:53:11.173Z,8.58
2018-06-19T01:58:40.496Z,8.63
2018-06-19T02:04:09.693Z,8.60
2018-06-19T02:09:39.026Z,8.90
2018-06-19T02:15:08.250Z,9.45
2018-06-19T02:20:37.551Z,10.13
2018-06-19T02:26:06.465Z,9.05
2018-06-19T02:31:35.664Z,9.00
2018-06-19T02:37:04.868Z,9.05
2018-06-19T02:42:34.711Z,8.85
2018-06-19T02:48:04.309Z,9.95
2018-06-19T02:53:33.998Z,9.00
2018-06-19T02:59:03.665Z,9.03
2018-06-19T03:04:33.255Z,9.25
2018-06-19T03:10:02.862Z,9.25
2018-06-19T03:15:32.725Z,9.15
2018-06-19T03:21:02.369Z,10.60
2018-06-19T03:26:32.131Z,9.10
2018-06-19T03:32:01.325Z,9.13
2018-06-19T03:37:31.188Z,8.65
2018-06-19T03:43:01.196Z,9.60
2018-06-19T03:48:31.036Z,9.43
2018-06-19T03:54:01.279Z,8.15
2018-06-19T03:59:32.203Z,8.65
2018-06-19T04:05:01.749Z,8.23
2018-06-19T04:10:31.686Z,7.90
2018-06-19T04:16:02.225Z,9.23
2018-06-19T04:21:32.149Z,7.70
2018-06-19T04:27:01.769Z,7.00
2018-06-19T04:32:31.407Z,6.67
2018-06-19T04:38:01.191Z,7.40
2018-06-19T04:43:31.181Z,7.03
2018-06-19T04:49:01.900Z,6.85
2018-06-19T04:54:31.738Z,7.10
2018-06-19T05:00:02.973Z,6.50
2018-06-19T05:05:34.672Z,7.33
2018-06-19T05:11:04.253Z,6.37
2018-06-19T05:16:34.172Z,5.85
2018-06-19T05:22:05.442Z,6.33
2018-06-19T05:27:34.731Z,5.42
2018-06-19T05:33:04.073Z,5.20
2018-06-19T05:38:34.212Z,6.35
2018-06-19T05:44:05.271Z,6.10
2018-06-19T05:49:35.186Z,4.40
2018-06-19T05:55:04.947Z,5.17
2018-06-19T06:00:34.548Z,5.42
2018-06-19T06:06:04.337Z,4.83
2018-06-19T06:11:34.027Z,5.60
2018-06-19T06:17:05.111Z,5.42
2018-06-19T06:22:34.827Z,5.95
2018-06-19T06:28:04.449Z,5.00
2018-06-19T06:33:33.639Z,4.65
2018-06-19T06:39:02.859Z,4.28
2018-06-19T06:44:32.039Z,3.60
2018-06-19T06:50:01.253Z,3.37
2018-06-19T06:55:30.440Z,3.77
2018-06-19T07:00:59.689Z,3.20
2018-06-19T07:06:28.907Z,3.60
2018-06-19T07:11:58.106Z,2.70
2018-06-19T07:17:27.302Z,3.92
2018-06-19T07:22:56.559Z,4.53
2018-06-19T07:28:25.738Z,3.75
2018-06-19T07:33:55.201Z,3.42
2018-06-19T07:39:24.416Z,3.15
2018-06-19T07:44:53.590Z,2.90
2018-06-19T07:50:22.810Z,2.75
2018-06-19T07:55:52.033Z,2.67
2018-06-19T08:01:21.874Z,2.40
2018-06-19T08:06:51.120Z,3.35
2018-06-19T08:12:20.070Z,3.10
2018-06-19T08:17:49.273Z,2.80
2018-06-19T08:23:18.713Z,5.28
2018-06-19T08:28:48.100Z,2.60
2018-06-19T08:34:18.054Z,3.83
2018-06-19T08:39:48.038Z,2.35
2018-06-19T08:45:18.183Z,2.25
2018-06-19T08:50:48.221Z,2.40
2018-06-19T08:56:18.479Z,2.10
2018-06-19T09:01:48.867Z,2.37
2018-06-19T09:07:19.693Z,2.20
2018-06-19T09:12:49.469Z,3.10
2018-06-19T09:18:18.984Z,2.27
2018-06-19T09:23:50.896Z,4.85
2018-06-19T09:29:20.607Z,2.02
2018-06-19T09:34:50.063Z,1.60
2018-06-19T09:40:19.237Z,2.10
2018-06-19T09:45:49.192Z,1.67
2018-06-19T09:51:18.810Z,1.65
2018-06-19T09:56:48.874Z,1.65
2018-06-19T10:02:19.012Z,1.80
2018-06-19T10:07:49.289Z,1.92
2018-06-19T10:13:20.012Z,1.82
2018-06-19T10:18:50.128Z,2.35
2018-06-19T10:24:20.348Z,1.95
2018-06-19T10:29:50.599Z,1.92
2018-06-19T10:35:19.978Z,1.80
2018-06-19T10:40:49.559Z,1.97
2018-06-19T10:46:19.390Z,2.15
2018-06-19T10:51:48.908Z,1.90
2018-06-19T10:57:18.340Z,2.10
2018-06-19T11:02:48.879Z,1.80
2018-06-19T11:08:18.865Z,2.37
2018-06-19T11:13:48.120Z,1.82
2018-06-19T11:19:17.694Z,1.60
2018-06-19T11:24:46.971Z,1.90
2018-06-19T11:30:16.286Z,2.20
2018-06-19T11:35:46.800Z,2.12
2018-06-19T11:41:16.076Z,2.40
2018-06-19T11:46:45.887Z,1.90
2018-06-19T11:52:15.712Z,2.40
2018-06-19T11:57:45.405Z,3.80
2018-06-19T12:03:14.953Z,2.10
2018-06-19T12:08:44.331Z,2.58
2018-06-19T12:14:13.816Z,2.20
2018-06-19T12:19:45.256Z,2.30
2018-06-19T12:25:14.797Z,2.52
2018-06-19T12:30:44.053Z,2.30
2018-06-19T12:36:13.243Z,2.25
2018-06-19T12:41:46.333Z,2.08
2018-06-19T12:47:16.301Z,2.10
2018-06-19T12:53:02.444Z,2.05
2018-06-19T12:58:31.656Z,2.27
2018-06-19T13:04:18.048Z,2.85
2018-06-19T13:09:47.814Z,2.60
2018-06-19T13:15:17.516Z,2.42
2018-06-19T13:20:50.793Z,2.42
2018-06-19T13:26:20.447Z,1.80
2018-06-19T13:31:50.426Z,1.90
2018-06-19T13:37:19.621Z,2.27
2018-06-19T13:45:12.255Z,2.00
2018-06-19T13:50:43.399Z,2.10
2018-06-19T13:57:41.935Z,2.30
2018-06-19T14:03:12.444Z,2.52
2018-06-19T14:09:13.405Z,2.35
2018-06-19T14:14:43.855Z,2.60
2018-06-19T14:20:15.322Z,1.85
2018-06-19T14:25:46.285Z,2.05
2018-06-19T14:31:15.626Z,2.02
2018-06-19T14:36:44.793Z,2.20
2018-06-19T14:42:18.038Z,1.90
2018-06-19T14:47:47.610Z,2.08
2018-06-19T14:53:17.728Z,2.02
2018-06-19T14:58:47.826Z,2.00
2018-06-19T15:04:17.628Z,1.80
2018-06-19T15:09:48.573Z,2.27
2018-06-19T15:15:18.435Z,1.30
2018-06-19T15:20:48.303Z,1.67
2018-06-19T15:26:18.787Z,1.80
2018-06-19T15:31:47.990Z,2.10
2018-06-19T15:37:17.170Z,2.30
2018-06-19T15:42:46.893Z,2.92
2018-06-19T15:48:18.205Z,2.40
2018-06-19T15:53:48.151Z,2.60
2018-06-19T15:59:21.356Z,2.17
2018-06-19T16:04:51.574Z,2.20
2018-06-19T16:10:21.290Z,1.92
2018-06-19T16:15:51.012Z,2.22
2018-06-19T16:21:21.086Z,2.00
2018-06-19T16:26:52.412Z,2.20
2018-06-19T16:32:21.621Z,2.40
2018-06-19T16:37:50.795Z,2.20
2018-06-19T16:43:21.028Z,1.90
2018-06-19T16:48:51.311Z,2.85
2018-06-19T16:54:21.168Z,2.10
2018-06-19T16:59:50.978Z,2.42
2018-06-19T17:05:20.417Z,2.00
2018-06-19T17:10:50.792Z,2.12
2018-06-19T17:16:20.683Z,2.58
2018-06-19T17:21:50.686Z,2.20
2018-06-19T17:27:20.898Z,2.10
2018-06-19T17:32:50.084Z,2.27
2018-06-19T17:38:19.949Z,2.20
2018-06-19T17:43:50.335Z,1.98
2018-06-19T17:49:20.516Z,2.22
2018-06-19T17:54:50.959Z,2.40
2018-06-19T18:00:20.830Z,2.20
2018-06-19T18:05:50.761Z,1.75
2018-06-19T18:11:22.202Z,2.05
2018-06-19T18:16:51.898Z,1.90
2018-06-19T18:22:21.986Z,1.85
2018-06-19T18:27:51.458Z,2.62
2018-06-19T18:33:44.482Z,2.15
2018-06-19T18:39:15.355Z,1.75
2018-06-19T18:44:45.775Z,2.30
2018-06-19T18:50:21.436Z,1.90
2018-06-19T18:55:51.322Z,1.70
2018-06-19T19:01:21.261Z,1.77
2018-06-19T19:06:51.510Z,2.00
2018-06-19T19:12:21.888Z,2.83
2018-06-19T19:17:56.745Z,12.33
2018-06-19T19:23:25.996Z,3.00
2018-06-19T19:29:01.279Z,10.35
2018-06-19T19:34:30.498Z,4.67
2018-06-19T19:39:59.737Z,6.30
2018-06-19T19:45:28.946Z,7.00
2018-06-19T19:50:58.178Z,4.70
2018-06-19T19:56:32.647Z,6.37
2018-06-19T20:02:01.855Z,3.40
2018-06-19T20:07:31.102Z,4.20
2018-06-19T20:13:00.312Z,3.87
2018-06-19T20:18:29.548Z,3.77
2018-06-19T20:23:58.751Z,2.60
2018-06-19T20:29:28.034Z,3.60
2018-06-19T20:34:57.388Z,4.45
2018-06-19T20:40:26.620Z,4.60
2018-06-19T20:45:55.811Z,3.87
2018-06-19T20:51:24.999Z,4.07
2018-06-19T20:56:54.275Z,5.78
2018-06-19T21:02:23.451Z,5.37
2018-06-19T21:07:52.716Z,5.00
2018-06-19T21:13:21.934Z,4.17
2018-06-19T21:18:50.834Z,4.00
2018-06-19T21:24:20.197Z,3.30
2018-06-19T21:29:49.458Z,3.22
2018-06-19T21:35:18.664Z,4.12
2018-06-19T21:40:48.029Z,3.80
2018-06-19T21:46:17.535Z,3.98
2018-06-19T21:51:47.043Z,3.87
2018-06-19T21:57:16.729Z,4.58
2018-06-19T22:02:46.387Z,3.55
2018-06-19T22:08:16.066Z,3.83
2018-06-19T22:13:46.179Z,3.67
2018-06-19T22:19:15.793Z,3.80
2018-06-19T22:24:45.867Z,3.87
2018-06-19T22:30:15.643Z,3.90
2018-06-19T22:35:45.539Z,3.90
2018-06-19T22:41:15.466Z,4.10
2018-06-19T22:46:45.869Z,4.53
2018-06-19T22:52:16.544Z,3.75
2018-06-19T22:57:46.248Z,4.40
2018-06-19T23:03:16.680Z,4.33
2018-06-19T23:08:49.695Z,4.45
2018-06-19T23:14:19.107Z,4.90
2018-06-19T23:19:49.101Z,4.50
2018-06-19T23:25:19.316Z,5.05
2018-06-19T23:30:48.820Z,4.92
2018-06-19T23:36:18.227Z,4.72
2018-06-19T23:41:48.204Z,4.58
2018-06-19T23:47:17.785Z,5.00
2018-06-19T23:52:48.457Z,4.12
2018-06-19T23:58:17.870Z,4.72
